Time;durP1;ratioP1;P1;durP2;ratioP2;P2;SDS_P1;SDS_P2;PMS_P1;PMS_P2;Temp;Humidity;BMP_temperature;BMP_pressure;BME280_temperature;BME280_humidity;BME280_pressure;Samples;Min_cycle;Max_cycle;Signal;HPM_P1;HPM_P2
2021/05/08 00:01:38;;;;;;;33.85;31.55;;;1.90;99.90;;;;;;6124801;23;20939;-83
2021/05/08 00:04:06;;;;;;;34.55;32.55;;;1.80;99.90;;;;;;6126336;23;20155;-82
2021/05/08 00:06:34;;;;;;;37.77;35.00;;;1.80;99.90;;;;;;6135584;23;20634;-83
2021/05/08 00:09:04;;;;;;;39.92;37.92;;;1.80;99.90;;;;;;6136262;23;20403;-82
2021/05/08 00:11:34;;;;;;;38.90;36.47;;;1.80;99.90;;;;;;6135507;23;20522;-82
2021/05/08 00:14:00;;;;;;;35.30;33.00;;;1.90;99.90;;;;;;6136184;23;20159;-84
2021/05/08 00:16:32;;;;;;;31.67;29.75;;;1.70;99.90;;;;;;6134862;23;20425;-83
2021/05/08 00:18:59;;;;;;;32.47;30.27;;;1.90;99.90;;;;;;6128221;23;20170;-81
2021/05/08 00:21:29;;;;;;;25.98;24.48;;;1.90;99.90;;;;;;6128318;23;20733;-81
2021/05/08 00:23:55;;;;;;;31.83;29.53;;;1.80;99.90;;;;;;6137859;23;20170;-83
2021/05/08 00:26:23;;;;;;;30.40;28.57;;;1.80;99.90;;;;;;6137879;23;20891;-84
2021/05/08 00:29:01;;;;;;;36.27;33.93;;;1.90;99.90;;;;;;6128169;23;20399;-83
2021/05/08 00:31:27;;;;;;;40.40;37.70;;;1.90;99.90;;;;;;6136896;23;20489;-82
2021/05/08 00:33:56;;;;;;;42.53;40.07;;;1.80;99.90;;;;;;6137604;23;20420;-84
2021/05/08 00:36:22;;;;;;;69.70;41.58;;;1.80;99.90;;;;;;6137541;23;20573;-83
2021/05/08 00:38:52;;;;;;;39.63;37.42;;;1.90;99.90;;;;;;6137464;23;20169;-84
2021/05/08 00:41:18;;;;;;;43.50;40.00;;;1.80;99.90;;;;;;6138020;23;20167;-86
2021/05/08 00:43:45;;;;;;;48.97;46.07;;;1.60;99.90;;;;;;6137703;23;20826;-84
2021/05/08 00:46:15;;;;;;;49.47;46.37;;;1.60;99.90;;;;;;6127954;23;20416;-87
2021/05/08 00:48:42;;;;;;;53.22;50.63;;;1.50;99.90;;;;;;6127600;23;20405;-87
2021/05/08 00:51:08;;;;;;;52.33;49.77;;;1.60;99.90;;;;;;6137744;23;20169;-83
2021/05/08 00:53:36;;;;;;;55.97;53.27;;;1.50;99.90;;;;;;6137393;23;20437;-85
2021/05/08 00:56:06;;;;;;;57.97;55.17;;;1.40;99.90;;;;;;6127640;23;20408;-84
2021/05/08 00:58:35;;;;;;;61.77;58.37;;;1.50;99.90;;;;;;6137586;23;20165;-85
2021/05/08 01:01:05;;;;;;;65.50;62.17;;;1.40;99.90;;;;;;6137853;23;20449;-85
2021/05/08 01:03:35;;;;;;;71.43;68.03;;;1.30;99.90;;;;;;6136248;23;20172;-86
2021/05/08 01:06:02;;;;;;;70.82;67.18;;;1.40;99.90;;;;;;6137475;23;20514;-86
2021/05/08 01:08:28;;;;;;;70.03;65.38;;;1.50;99.90;;;;;;6127881;23;20157;-86
2021/05/08 01:10:59;;;;;;;70.63;66.80;;;1.40;99.90;;;;;;6137210;23;20261;-88
2021/05/08 01:13:26;;;;;;;74.00;69.93;;;1.40;99.90;;;;;;6127871;23;20740;-86
2021/05/08 01:15:57;;;;;;;70.68;67.13;;;1.30;99.90;;;;;;6137160;23;20163;-87
2021/05/08 01:18:28;;;;;;;69.50;66.07;;;1.30;99.90;;;;;;6136282;23;20517;-86
2021/05/08 01:20:55;;;;;;;67.28;63.67;;;1.30;99.90;;;;;;6137317;23;20200;-87
2021/05/08 01:23:24;;;;;;;65.18;61.90;;;1.30;99.90;;;;;;6127583;23;20161;-86
2021/05/08 01:25:52;;;;;;;57.33;54.70;;;1.60;99.90;;;;;;6137132;23;20498;-86
2021/05/08 01:28:20;;;;;;;56.72;53.70;;;1.60;99.90;;;;;;6136657;23;20170;-83
2021/05/08 01:30:48;;;;;;;65.07;62.05;;;1.60;99.90;;;;;;6137057;23;20165;-87
2021/05/08 01:33:19;;;;;;;68.85;65.05;;;1.60;99.90;;;;;;6125865;23;20187;-83
2021/05/08 01:35:45;;;;;;;62.13;59.10;;;1.60;99.90;;;;;;6127181;23;20677;-86
2021/05/08 01:38:12;;;;;;;64.70;61.10;;;1.50;99.90;;;;;;6137404;23;20493;-83
2021/05/08 01:40:44;;;;;;;61.78;58.60;;;1.50;99.90;;;;;;6137364;23;20691;-86
2021/05/08 01:43:11;;;;;;;65.95;62.50;;;1.40;99.90;;;;;;6137471;23;20283;-86
2021/05/08 01:45:38;;;;;;;74.07;70.00;;;1.50;99.90;;;;;;6137290;23;20157;-85
2021/05/08 01:48:07;;;;;;;73.43;69.47;;;1.50;99.90;;;;;;6125922;23;20201;-84
2021/05/08 01:50:35;;;;;;;76.78;72.63;;;1.40;99.90;;;;;;6127489;23;20485;-87
2021/05/08 01:53:05;;;;;;;72.40;66.75;;;1.50;99.90;;;;;;6137175;23;20194;-86
2021/05/08 01:55:31;;;;;;;71.78;67.97;;;1.40;99.90;;;;;;6136900;23;20161;-86
2021/05/08 01:58:00;;;;;;;75.80;71.75;;;1.40;99.90;;;;;;6127194;23;20165;-87
2021/05/08 02:00:30;;;;;;;72.85;69.40;;;1.30;99.90;;;;;;6127268;23;20160;-84
2021/05/08 02:02:57;;;;;;;76.57;73.18;;;1.20;99.90;;;;;;6135489;23;20240;-87
2021/05/08 02:05:27;;;;;;;75.90;71.47;;;1.10;99.90;;;;;;6127255;23;20483;-85
2021/05/08 02:07:53;;;;;;;76.82;73.07;;;1.10;99.90;;;;;;6126949;23;20167;-87
2021/05/08 02:10:29;;;;;;;80.53;76.10;;;1.10;99.90;;;;;;6127124;23;20224;-86
2021/05/08 02:12:56;;;;;;;73.60;70.25;;;1.10;99.90;;;;;;6126790;23;20441;-87
2021/05/08 02:15:30;;;;;;;79.87;75.50;;;1.00;99.90;;;;;;6137056;23;20191;-86
2021/05/08 02:17:57;;;;;;;82.40;78.23;;;1.10;99.90;;;;;;6135279;23;20440;-86
2021/05/08 02:20:26;;;;;;;78.72;74.28;;;1.10;99.90;;;;;;6126900;23;20483;-87
2021/05/08 02:22:54;;;;;;;81.93;77.97;;;1.00;99.90;;;;;;6136840;23;20164;-85
2021/05/08 02:25:22;;;;;;;76.00;72.68;;;1.10;99.90;;;;;;6126719;23;20410;-85
2021/05/08 02:27:52;;;;;;;77.43;73.57;;;0.90;99.90;;;;;;6137058;23;20161;-85
2021/05/08 02:30:20;;;;;;;80.68;76.22;;;0.80;99.90;;;;;;6136927;23;20209;-85
2021/05/08 02:32:48;;;;;;;78.40;74.75;;;0.80;99.90;;;;;;6135848;23;20191;-86
2021/05/08 02:35:16;;;;;;;81.05;77.00;;;0.70;99.90;;;;;;6136366;23;20168;-84
2021/05/08 02:37:43;;;;;;;81.23;77.23;;;0.70;99.90;;;;;;6136804;23;20165;-87
2021/05/08 02:40:14;;;;;;;75.40;72.03;;;0.60;99.90;;;;;;6126711;23;20407;-87
2021/05/08 02:42:41;;;;;;;76.47;72.88;;;0.50;99.90;;;;;;6127105;23;20222;-85
2021/05/08 02:45:09;;;;;;;79.75;75.97;;;0.50;99.90;;;;;;6126668;23;20599;-85
2021/05/08 02:47:37;;;;;;;78.13;74.72;;;0.40;99.90;;;;;;6135436;23;20192;-85
2021/05/08 02:50:08;;;;;;;78.47;74.47;;;0.30;99.90;;;;;;6136911;23;20155;-84
2021/05/08 02:52:36;;;;;;;78.90;74.45;;;0.30;99.90;;;;;;6136825;23;20169;-83
2021/05/08 02:55:07;;;;;;;81.38;77.35;;;0.40;99.90;;;;;;6136928;23;20159;-84
2021/05/08 02:57:38;;;;;;;78.45;74.90;;;0.40;99.90;;;;;;6136636;23;20166;-84
2021/05/08 03:00:09;;;;;;;76.10;72.72;;;0.60;99.90;;;;;;6136706;23;20160;-86
2021/05/08 03:02:38;;;;;;;79.85;75.95;;;0.70;99.90;;;;;;6134929;23;20189;-83
2021/05/08 03:05:07;;;;;;;86.30;82.10;;;0.70;99.90;;;;;;6126361;23;20621;-84
2021/05/08 03:07:42;;;;;;;81.38;77.57;;;0.90;99.90;;;;;;6126829;23;20158;-85
2021/05/08 03:10:18;;;;;;;84.70;80.85;;;1.00;99.90;;;;;;6136437;23;20194;-83
2021/05/08 03:12:54;;;;;;;95.75;89.50;;;1.00;99.90;;;;;;6126837;23;20252;-87
2021/05/08 03:15:26;;;;;;;87.07;83.13;;;1.00;99.90;;;;;;6136385;23;20581;-86
2021/05/08 03:17:52;;;;;;;91.90;87.47;;;0.90;99.90;;;;;;6125591;23;20155;-85
2021/05/08 03:20:23;;;;;;;97.50;92.60;;;0.90;99.90;;;;;;6136252;23;20208;-85
2021/05/08 03:22:55;;;;;;;102.35;97.38;;;0.90;99.90;;;;;;6126307;23;20193;-86
2021/05/08 03:25:26;;;;;;;97.93;93.18;;;1.10;99.90;;;;;;6126074;23;20623;-86
2021/05/08 03:27:55;;;;;;;96.53;91.63;;;1.10;99.90;;;;;;6136295;23;20174;-86
2021/05/08 03:30:23;;;;;;;92.72;88.00;;;1.10;99.90;;;;;;6126410;23;20724;-86
2021/05/08 03:32:49;;;;;;;99.78;94.97;;;1.10;99.90;;;;;;6134771;23;20185;-87
2021/05/08 03:35:16;;;;;;;95.50;90.50;;;1.10;99.90;;;;;;6126313;23;20194;-84
2021/05/08 03:37:49;;;;;;;92.97;88.65;;;1.00;99.90;;;;;;6135867;23;20432;-86
2021/05/08 03:40:19;;;;;;;93.47;88.87;;;1.10;99.90;;;;;;6135800;23;20165;-85
2021/05/08 03:42:47;;;;;;;99.15;94.05;;;1.10;99.90;;;;;;6135913;23;20491;-84
2021/05/08 03:45:19;;;;;;;94.80;90.00;;;1.20;99.90;;;;;;6126015;23;20160;-86
2021/05/08 03:47:56;;;;;;;101.13;95.93;;;1.20;99.90;;;;;;6135105;23;20174;-84
2021/05/08 03:50:47;;;;;;;;;;;;;;;;;;;;;
2021/05/08 03:53:37;;;;;;;;;;;;;;;;;;;;;
2021/05/08 03:56:21;;;;;;;97.75;93.30;;;0.80;99.90;;;;;;6133327;23;20179;-82
2021/05/08 03:58:54;;;;;;;90.93;86.57;;;0.80;99.90;;;;;;6136038;23;20164;-85
2021/05/08 04:01:21;;;;;;;89.95;85.65;;;0.70;99.90;;;;;;6134665;23;20487;-84
2021/05/08 04:04:01;;;;;;;84.50;80.18;;;0.70;99.90;;;;;;6125815;23;20190;-88
2021/05/08 04:06:29;;;;;;;85.38;81.30;;;0.60;99.90;;;;;;6124751;23;20174;-84
2021/05/08 04:08:57;;;;;;;86.55;82.35;;;0.50;99.90;;;;;;6125988;23;20275;-81
2021/05/08 04:11:23;;;;;;;90.88;86.47;;;0.60;99.90;;;;;;6126188;23;20274;-85
2021/05/08 04:13:57;;;;;;;94.68;89.78;;;0.70;99.90;;;;;;6135936;23;20160;-85
2021/05/08 04:16:26;;;;;;;97.72;93.03;;;0.90;99.90;;;;;;6095422;23;20156;-85
2021/05/08 04:19:03;;;;;;;101.00;96.25;;;1.10;99.90;;;;;;6098229;23;20171;-83
2021/05/08 04:24:34;;;;;;;101.93;96.70;;;1.60;99.90;;;;;;6124458;23;20232;-85
2021/05/08 04:27:03;;;;;;;104.72;99.78;;;1.80;99.90;;;;;;6135485;23;20167;-84
2021/05/08 04:29:29;;;;;;;109.40;103.97;;;2.00;99.90;;;;;;6135539;23;20174;-85
2021/05/08 04:31:57;;;;;;;111.57;106.07;;;2.20;99.90;;;;;;6125536;23;20406;-83
2021/05/08 04:34:26;;;;;;;122.18;115.97;;;2.30;99.90;;;;;;6137115;23;20441;-85
2021/05/08 04:36:54;;;;;;;115.27;109.40;;;2.50;99.90;;;;;;6136242;23;20166;-84
2021/05/08 04:39:20;;;;;;;112.15;106.40;;;2.60;99.90;;;;;;6137214;23;20411;-85
2021/05/08 04:41:47;;;;;;;118.70;112.90;;;2.70;99.90;;;;;;6126726;23;20158;-90
2021/05/08 04:44:14;;;;;;;111.27;105.87;;;2.90;99.90;;;;;;6136380;23;20482;-84
2021/05/08 04:46:42;;;;;;;116.97;111.00;;;3.00;99.90;;;;;;6125473;23;20622;-85
2021/05/08 04:49:08;;;;;;;112.00;107.00;;;3.00;99.90;;;;;;6136189;23;20413;-82
2021/05/08 04:51:41;;;;;;;111.17;106.27;;;3.30;99.90;;;;;;6136953;23;20591;-79
2021/05/08 04:54:07;;;;;;;109.93;104.30;;;3.30;99.90;;;;;;6127019;23;20407;-80
2021/05/08 04:56:33;;;;;;;101.37;96.57;;;3.50;99.90;;;;;;6127068;23;20541;-84
2021/05/08 04:59:01;;;;;;;94.70;89.37;;;3.50;99.90;;;;;;6135983;23;20434;-83
2021/05/08 05:01:27;;;;;;;88.23;84.27;;;3.60;99.90;;;;;;6125205;23;20405;-83
2021/05/08 05:03:54;;;;;;;83.57;79.40;;;3.70;99.90;;;;;;6126248;23;20759;-80
2021/05/08 05:06:20;;;;;;;69.80;65.90;;;3.80;99.90;;;;;;6137666;23;20415;-84
2021/05/08 05:08:48;;;;;;;65.17;61.07;;;4.00;99.90;;;;;;6127322;23;20435;-80
2021/05/08 05:11:18;;;;;;;54.13;50.37;;;4.10;99.90;;;;;;6137366;23;20400;-82
2021/05/08 05:13:47;;;;;;;53.87;50.73;;;4.30;99.90;;;;;;6138222;23;20406;-83
2021/05/08 05:16:17;;;;;;;46.23;43.23;;;4.40;99.90;;;;;;6138110;23;20715;-86
2021/05/08 05:18:44;;;;;;;37.63;35.00;;;4.50;99.90;;;;;;6136758;23;20803;-83
2021/05/08 05:21:15;;;;;;;29.53;27.13;;;4.80;99.90;;;;;;6137141;23;20416;-83
2021/05/08 05:23:43;;;;;;;26.73;24.27;;;5.00;99.90;;;;;;6137027;23;20437;-84
2021/05/08 05:26:11;;;;;;;14.83;12.40;;;5.20;99.90;;;;;;6137331;23;20419;-84
2021/05/08 05:28:39;;;;;;;16.87;12.30;;;5.50;99.90;;;;;;6127285;23;20960;-84
2021/05/08 05:31:14;;;;;;;15.13;8.67;;;5.80;99.90;;;;;;6136994;23;20446;-85
2021/05/08 05:33:43;;;;;;;21.87;8.13;;;6.00;99.90;;;;;;6135871;23;20417;-85
2021/05/08 05:36:18;;;;;;;12.93;6.33;;;6.40;99.90;;;;;;6127004;23;20461;-81
2021/05/08 05:39:38;;;;;;;12.97;5.17;;;6.60;99.90;;;;;;6137483;23;20434;-83
2021/05/08 05:42:28;;;;;;;;;;;;;;;;;;;;;
2021/05/08 05:45:15;;;;;;;13.00;5.40;;;7.10;99.90;;;;;;6038157;23;20737;-83
2021/05/08 05:47:52;;;;;;;;;;;;;;;;;;;;;
2021/05/08 05:50:34;;;;;;;12.57;5.03;;;7.70;99.90;;;;;;6137110;23;20898;-84
2021/05/08 05:53:01;;;;;;;14.23;4.80;;;8.20;97.40;;;;;;6137367;23;20462;-82
2021/05/08 05:55:29;;;;;;;15.40;5.60;;;8.60;87.40;;;;;;6136923;23;20403;-81
2021/05/08 05:57:57;;;;;;;12.70;4.10;;;9.00;69.20;;;;;;6136921;23;20504;-83
2021/05/08 06:00:24;;;;;;;15.93;5.20;;;9.60;71.10;;;;;;6127640;23;20738;-83
2021/05/08 06:02:51;;;;;;;17.20;5.20;;;9.20;61.20;;;;;;6136519;23;20430;-81
2021/05/08 06:05:29;;;;;;;25.70;5.53;;;9.20;60.30;;;;;;6136837;23;20848;-82
2021/05/08 06:07:58;;;;;;;15.47;5.27;;;9.20;59.90;;;;;;6136587;23;20440;-81
2021/05/08 06:10:28;;;;;;;13.33;4.30;;;8.90;58.90;;;;;;6126898;23;20508;-83
2021/05/08 06:12:55;;;;;;;13.20;4.87;;;8.80;63.30;;;;;;6137241;23;20450;-81
2021/05/08 06:15:25;;;;;;;13.83;4.70;;;8.50;63.70;;;;;;6136334;23;20407;-82
2021/05/08 06:17:54;;;;;;;14.90;6.03;;;8.50;63.90;;;;;;6135885;23;20775;-79
2021/05/08 06:20:23;;;;;;;13.60;5.07;;;8.50;66.80;;;;;;6136657;23;20521;-81
2021/05/08 06:22:50;;;;;;;13.33;5.50;;;8.60;68.80;;;;;;6127191;23;20952;-80
2021/05/08 06:25:38;;;;;;;14.00;5.30;;;9.00;66.00;;;;;;6127257;23;20461;-81
2021/05/08 06:28:17;;;;;;;16.10;6.27;;;9.20;61.20;;;;;;6136886;23;20458;-81
2021/05/08 06:30:46;;;;;;;14.90;5.37;;;9.70;54.20;;;;;;6136692;23;20410;-81
2021/05/08 06:33:16;;;;;;;14.60;4.80;;;9.90;44.90;;;;;;6125965;23;20402;-80
2021/05/08 06:35:43;;;;;;;16.53;4.87;;;10.10;39.50;;;;;;6126967;23;20396;-82
2021/05/08 06:38:10;;;;;;;16.73;5.10;;;10.20;40.50;;;;;;6136861;23;20439;-83
2021/05/08 06:40:36;;;;;;;17.07;5.17;;;10.40;36.70;;;;;;6126998;23;20474;-82
2021/05/08 06:43:03;;;;;;;21.40;5.00;;;10.60;36.20;;;;;;6127195;23;20751;-82
2021/05/08 06:45:29;;;;;;;18.63;4.57;;;10.80;34.50;;;;;;6136398;23;20407;-80
2021/05/08 06:47:59;;;;;;;19.63;5.47;;;11.00;33.30;;;;;;6135235;23;20766;-84
2021/05/08 06:50:26;;;;;;;21.83;6.43;;;11.00;31.80;;;;;;6136052;23;20742;-80
2021/05/08 06:53:12;;;;;;;17.00;5.10;;;11.20;28.80;;;;;;6128860;23;20407;-82
2021/05/08 06:55:50;;;;;;;17.07;4.53;;;11.30;25.60;;;;;;6125018;23;20418;-81
2021/05/08 06:58:21;;;;;;;21.43;5.20;;;11.80;24.80;;;;;;6136178;23;20402;-82
2021/05/08 07:00:49;;;;;;;20.20;5.33;;;11.60;22.10;;;;;;6135706;23;20421;-84
2021/05/08 07:03:16;;;;;;;16.30;4.13;;;11.50;21.80;;;;;;6134904;23;20973;-78
2021/05/08 07:06:09;;;;;;;13.23;3.23;;;11.50;22.60;;;;;;6126499;23;20403;-82
2021/05/08 07:08:36;;;;;;;18.83;4.80;;;11.30;21.50;;;;;;6135853;23;20969;-85
2021/05/08 07:11:50;;;;;;;16.70;4.97;;;11.20;24.40;;;;;;6126744;23;20402;-83
2021/05/08 07:14:19;;;;;;;14.17;4.40;;;11.20;26.20;;;;;;6046336;23;20446;-83
2021/05/08 07:16:45;;;;;;;14.07;4.23;;;11.10;27.20;;;;;;6047664;23;20501;-84
2021/05/08 07:19:21;;;;;;;13.47;4.53;;;11.10;25.00;;;;;;6126100;23;20470;-82
2021/05/08 07:22:10;;;;;;;14.73;4.20;;;11.10;26.80;;;;;;6136822;23;20406;-84
2021/05/08 07:31:27;;;;;;;18.50;6.10;;;11.40;28.00;;;;;;5805299;24;20420;-84
2021/05/08 07:37:23;;;;;;;14.73;4.43;;;11.40;26.70;;;;;;6019618;23;20501;-82
2021/05/08 07:39:53;;;;;;;15.80;5.20;;;11.50;26.40;;;;;;6124313;23;20419;-85
2021/05/08 07:42:29;;;;;;;14.33;5.03;;;11.70;27.50;;;;;;6134880;23;20435;-86
2021/05/08 07:45:01;;;;;;;17.37;5.43;;;11.80;25.40;;;;;;6126679;23;20732;-79
2021/05/08 07:47:39;;;;;;;16.30;5.23;;;12.00;24.10;;;;;;6124218;23;20454;-87
2021/05/08 07:53:09;;;;;;;16.27;4.97;;;12.10;23.40;;;;;;6125286;23;20411;-80
2021/05/08 08:22:31;;;;;;;20.30;5.53;;;13.80;10.10;;;;;;5871117;24;20411;-82
2021/05/08 08:32:28;;;;;;;17.00;4.03;;;14.30;8.60;;;;;;5757479;24;20845;-86
2021/05/08 08:43:15;;;;;;;;;;;;;;;;;;;;;
2021/05/08 09:05:16;;;;;;;;;;;;;;;;;;;;;
2021/05/08 09:12:17;;;;;;;20.50;2.30;;;15.80;1.00;;;;;;5826244;24;21009;-83
2021/05/08 09:41:42;;;;;;;26.97;2.80;;;17.00;1.00;;;;;;5717732;25;20443;-83
2021/05/08 09:44:26;;;;;;;27.00;2.47;;;17.10;1.00;;;;;;5761769;24;20248;-84
2021/05/08 09:47:33;;;;;;;;;;;;;;;;;;;;;
2021/05/08 10:34:01;;;;;;;25.83;4.40;;;16.70;1.00;;;;;;5739517;24;20449;-84
2021/05/08 10:40:32;;;;;;;23.50;2.93;;;16.80;1.00;;;;;;5907164;24;20439;-84
2021/05/08 10:54:58;;;;;;;;;;;;;;;;;;;;;
2021/05/08 11:07:25;;;;;;;22.67;3.50;;;17.20;1.00;;;;;;6038823;23;20527;-84
2021/05/08 11:57:46;;;;;;;;;;;;;;;;;;;;;
2021/05/08 12:03:29;;;;;;;14.30;1.57;;;14.70;13.50;;;;;;5782020;24;20429;-84
2021/05/08 12:06:08;;;;;;;14.30;1.50;;;14.90;12.60;;;;;;5816259;24;20448;-81
2021/05/08 12:08:47;;;;;;;13.70;1.10;;;14.90;8.00;;;;;;5902436;24;20420;-84
2021/05/08 12:12:04;;;;;;;14.70;1.53;;;14.90;3.80;;;;;;5959719;24;20504;-85
2021/05/08 12:15:02;;;;;;;14.53;1.50;;;15.00;8.60;;;;;;5855022;24;20454;-85
2021/05/08 12:17:40;;;;;;;14.80;1.80;;;15.20;5.00;;;;;;5942130;24;20439;-84
2021/05/08 12:20:38;;;;;;;14.03;1.40;;;15.30;10.40;;;;;;5990550;23;20425;-86
2021/05/08 12:23:47;;;;;;;15.30;1.60;;;15.20;5.20;;;;;;6037241;23;20413;-84
2021/05/08 12:33:17;;;;;;;15.00;1.50;;;15.20;1.50;;;;;;6027303;23;20472;-83
2021/05/08 12:36:14;;;;;;;14.97;1.33;;;15.20;3.90;;;;;;6035763;23;20910;-83
2021/05/08 12:38:49;;;;;;;15.10;1.40;;;14.80;8.50;;;;;;6046968;23;20429;-83
2021/05/08 12:41:31;;;;;;;15.53;1.80;;;14.80;8.50;;;;;;6038497;23;20405;-87
2021/05/08 12:44:39;;;;;;;14.60;1.40;;;14.90;9.20;;;;;;6047534;23;20417;-83
2021/05/08 12:47:37;;;;;;;14.93;1.40;;;14.70;12.70;;;;;;6038002;23;20423;-83
2021/05/08 12:50:33;;;;;;;14.60;1.10;;;14.70;8.40;;;;;;6037225;23;21060;-83
2021/05/08 12:53:36;;;;;;;14.80;1.57;;;14.60;9.20;;;;;;6038235;23;20437;-85
2021/05/08 12:56:36;;;;;;;15.63;1.67;;;14.50;11.00;;;;;;6036829;23;20425;-84
2021/05/08 13:02:34;;;;;;;13.53;1.27;;;14.60;17.40;;;;;;5979307;24;20439;-82
2021/05/08 13:12:00;;;;;;;13.77;1.30;;;14.30;2.20;;;;;;5978566;23;20920;-85
2021/05/08 13:14:39;;;;;;;13.60;1.47;;;14.50;5.30;;;;;;6062102;23;20451;-86
2021/05/08 13:21:14;;;;;;;;;;;;;;;;;;;;;
2021/05/08 13:31:12;;;;;;;;;;;;;;;;;;;;;
2021/05/08 15:00:34;;;;;;;19.67;1.60;;;17.50;1.00;;;;;;5843144;24;20424;-86
2021/05/08 15:03:28;;;;;;;21.60;1.70;;;17.70;1.00;;;;;;5996307;23;20496;-84
2021/05/08 15:19:33;;;;;;;24.83;1.70;;;18.30;1.00;;;;;;5974619;23;20545;-88
2021/05/08 15:25:45;;;;;;;23.97;2.17;;;18.80;1.00;;;;;;5883265;24;20548;-88
2021/05/08 15:32:53;;;;;;;;;;;;;;;;;;;;;
2021/05/08 15:45:49;;;;;;;24.00;2.10;;;19.10;1.00;;;;;;5875325;23;20415;-90
2021/05/08 15:49:20;;;;;;;23.90;2.00;;;19.60;1.00;;;;;;5931844;24;20491;-87
2021/05/08 15:53:11;;;;;;;;;;;;;;;;;;;;;
2021/05/08 15:56:06;;;;;;;26.10;2.50;;;19.60;1.00;;;;;;5996098;23;20933;-88
2021/05/08 16:27:48;;;;;;;25.83;2.53;;;18.80;1.00;;;;;;5910873;24;20930;-87
2021/05/08 16:33:39;;;;;;;23.87;2.10;;;18.40;1.00;;;;;;5842066;24;20420;-88
2021/05/08 16:39:38;;;;;;;23.20;2.10;;;18.30;1.00;;;;;;5791399;24;20441;-90
2021/05/08 16:42:42;;;;;;;;;;;;;;;;;;;;;
2021/05/08 16:45:40;;;;;;;25.43;2.40;;;18.20;1.10;;;;;;6038716;23;20468;-90
2021/05/08 16:52:24;;;;;;;22.07;1.70;;;18.00;1.10;;;;;;6010865;23;20412;-89
2021/05/08 16:58:45;;;;;;;21.03;1.50;;;17.80;3.00;;;;;;6145416;23;20414;-91
2021/05/08 17:01:18;;;;;;;21.70;1.83;;;17.70;2.90;;;;;;6153376;23;20449;-89
2021/05/08 17:03:56;;;;;;;21.93;1.77;;;17.70;3.70;;;;;;6166084;23;20419;-87
2021/05/08 17:06:30;;;;;;;21.60;2.10;;;17.60;4.80;;;;;;6167006;23;20433;-88
2021/05/08 17:09:31;;;;;;;21.00;2.03;;;17.60;5.00;;;;;;6167182;23;20414;-90
2021/05/08 17:14:48;;;;;;;19.87;1.93;;;17.60;5.00;;;;;;6120573;23;20453;-91
2021/05/08 17:17:45;;;;;;;21.97;2.30;;;17.60;6.00;;;;;;6166116;23;20769;-87
2021/05/08 17:20:24;;;;;;;19.73;1.83;;;17.60;6.60;;;;;;6157151;23;20429;-89
2021/05/08 17:23:10;;;;;;;20.90;2.30;;;17.60;6.60;;;;;;6131594;23;20413;-92
2021/05/08 17:25:54;;;;;;;;;;;;;;;;;;;;;
2021/05/08 17:28:42;;;;;;;20.00;1.90;;;17.50;7.30;;;;;;6167688;23;20939;-91
2021/05/08 17:31:12;;;;;;;19.87;1.90;;;17.50;7.80;;;;;;6149179;23;20409;-86
2021/05/08 17:33:47;;;;;;;20.47;1.53;;;17.70;7.90;;;;;;6165568;23;21005;-89
2021/05/08 17:36:52;;;;;;;19.40;2.03;;;17.80;6.80;;;;;;6167756;23;20423;-90
2021/05/08 17:39:49;;;;;;;19.47;1.70;;;17.80;8.00;;;;;;6167090;23;20408;-88
2021/05/08 17:42:23;;;;;;;21.80;2.10;;;17.90;7.70;;;;;;6037641;23;20515;-91
2021/05/08 17:45:29;;;;;;;;;;;;;;;;;;;;;
2021/05/08 17:48:28;;;;;;;;;;;;;;;;;;;;;
2021/05/08 17:51:14;;;;;;;22.70;2.13;;;19.50;2.10;;;;;;6167308;23;20429;-90
2021/05/08 17:53:43;;;;;;;23.10;2.10;;;19.50;1.10;;;;;;6157039;23;20437;-87
2021/05/08 17:56:43;;;;;;;22.50;1.90;;;19.30;1.00;;;;;;6166837;23;20420;-85
2021/05/08 18:00:15;;;;;;;22.20;2.00;;;19.30;1.70;;;;;;6166679;23;20424;-87
2021/05/08 18:02:44;;;;;;;26.00;1.80;;;18.50;4.00;;;;;;6103928;23;20415;-92
2021/05/08 18:05:47;;;;;;;21.60;1.87;;;18.20;6.20;;;;;;6104627;23;20411;-88
2021/05/08 18:08:20;;;;;;;20.57;2.10;;;17.90;7.90;;;;;;6065389;23;20501;-88
2021/05/08 18:14:01;;;;;;;;;;;;;;;;;;;;;
2021/05/08 18:16:32;;;;;;;19.43;1.63;;;17.40;9.50;;;;;;6093587;23;21024;-83
2021/05/08 18:19:00;;;;;;;20.67;2.20;;;17.30;11.00;;;;;;6105225;23;20403;-93
2021/05/08 18:22:04;;;;;;;20.27;1.60;;;17.20;12.70;;;;;;6094954;23;20470;-93
2021/05/08 18:24:50;;;;;;;18.10;1.40;;;16.90;14.70;;;;;;6079596;23;20426;-93
2021/05/08 18:27:30;;;;;;;18.40;1.50;;;16.80;14.40;;;;;;6111815;23;20512;-91
2021/05/08 18:30:02;;;;;;;18.10;1.60;;;16.70;16.40;;;;;;6156771;23;20402;-91
2021/05/08 18:32:42;;;;;;;22.07;2.30;;;16.60;17.30;;;;;;6155602;23;20399;-90
2021/05/08 18:35:15;;;;;;;18.77;2.67;;;16.50;17.70;;;;;;6166515;23;20507;-90
2021/05/08 18:37:58;;;;;;;18.67;2.57;;;16.50;19.10;;;;;;6166096;23;20468;-87
2021/05/08 18:40:34;;;;;;;20.17;1.83;;;16.60;17.80;;;;;;6166600;23;20505;-91
2021/05/08 18:43:17;;;;;;;17.53;1.90;;;16.70;18.30;;;;;;6166528;23;20412;-92
2021/05/08 18:45:43;;;;;;;17.40;1.93;;;16.70;18.40;;;;;;6166538;23;20401;-93
2021/05/08 18:48:13;;;;;;;20.57;2.23;;;16.70;18.70;;;;;;6165446;23;20798;-94
2021/05/08 18:51:19;;;;;;;18.50;1.80;;;16.60;19.80;;;;;;6156434;23;20398;-88
2021/05/08 18:53:57;;;;;;;20.30;2.00;;;16.50;20.60;;;;;;6170608;23;20417;-89
2021/05/08 18:56:58;;;;;;;17.50;1.77;;;16.40;21.00;;;;;;6167831;23;20405;-89
2021/05/08 18:59:50;;;;;;;17.23;1.83;;;16.50;20.10;;;;;;6161556;23;20417;-90
2021/05/08 19:02:48;;;;;;;18.10;1.80;;;16.50;20.50;;;;;;6153096;23;20909;-89
2021/05/08 19:05:15;;;;;;;17.40;2.50;;;16.40;21.50;;;;;;6084685;23;20417;-93
2021/05/08 19:07:57;;;;;;;19.20;2.73;;;16.40;22.10;;;;;;6166128;23;20417;-91
2021/05/08 19:10:37;;;;;;;17.27;1.83;;;16.40;23.00;;;;;;6165619;23;20445;-91
2021/05/08 19:13:09;;;;;;;19.87;3.17;;;16.40;24.40;;;;;;6166200;23;20726;-88
2021/05/08 19:15:50;;;;;;;17.80;2.20;;;16.40;24.50;;;;;;6121153;23;20575;-88
2021/05/08 19:19:08;;;;;;;19.20;2.00;;;16.30;25.70;;;;;;6194429;23;20431;-89
2021/05/08 19:21:56;;;;;;;16.70;1.73;;;16.10;28.40;;;;;;6176271;23;20889;-88
2021/05/08 19:31:20;;;;;;;;;;;;;;;;;;;;;
2021/05/08 19:34:51;;;;;;;16.53;1.93;;;15.50;38.40;;;;;;5933077;24;20509;-91
2021/05/08 19:40:59;;;;;;;17.80;2.53;;;15.30;42.60;;;;;;6171123;23;20809;-90
2021/05/08 19:54:09;;;;;;;15.57;2.03;;;15.00;57.20;;;;;;6106655;23;20839;-90
2021/05/08 20:18:12;;;;;;;14.90;2.00;;;14.00;90.40;;;;;;5931842;24;20177;-85
2021/05/08 20:21:14;;;;;;;15.00;2.40;;;13.80;91.90;;;;;;5962939;23;20420;-90
2021/05/08 20:27:43;;;;;;;16.00;2.83;;;13.50;98.10;;;;;;5988018;23;20430;-87
2021/05/08 20:30:56;;;;;;;;;;;;;;;;;;;;;
2021/05/08 20:39:50;;;;;;;14.50;2.40;;;13.10;99.90;;;;;;6156395;23;20450;-86
2021/05/08 20:42:30;;;;;;;;;;;;;;;;;;;;;
2021/05/08 20:45:35;;;;;;;;;;;;;;;;;;;;;
2021/05/08 20:51:19;;;;;;;14.50;3.40;;;12.80;99.90;;;;;;6153568;23;20912;-87
2021/05/08 20:54:12;;;;;;;;;;;;;;;;;;;;;
2021/05/08 20:57:25;;;;;;;;;;;;;;;;;;;;;
2021/05/08 21:00:18;;;;;;;14.03;2.43;;;12.80;99.90;;;;;;6116612;23;20418;-88
2021/05/08 21:03:15;;;;;;;13.97;2.33;;;12.90;99.90;;;;;;6165546;23;20414;-90
2021/05/08 21:06:37;;;;;;;16.90;3.23;;;12.90;99.90;;;;;;6148190;23;20725;-88
2021/05/08 21:12:32;;;;;;;17.53;3.97;;;12.80;99.90;;;;;;6020025;23;20761;-88
2021/05/08 21:15:28;;;;;;;22.40;3.43;;;12.90;99.90;;;;;;6117368;23;20444;-88
2021/05/08 21:18:18;;;;;;;;;;;;;;;;;;;;;
2021/05/08 21:23:57;;;;;;;15.30;3.40;;;13.10;99.90;;;;;;6154765;23;20556;-89
2021/05/08 21:26:52;;;;;;;15.20;2.40;;;13.10;99.90;;;;;;6047629;23;20424;-88
2021/05/08 21:30:01;;;;;;;;;;;;;;;;;;;;;
2021/05/08 21:32:50;;;;;;;;;;;;;;;;;;;;;
2021/05/08 21:36:14;;;;;;;;;;;;;;;;;;;;;
2021/05/08 21:42:41;;;;;;;14.97;2.50;;;13.10;99.90;;;;;;6061869;23;20404;-89
2021/05/08 21:48:48;;;;;;;19.17;3.50;;;12.80;99.90;;;;;;6087323;23;20416;-88
2021/05/08 21:51:33;;;;;;;16.43;2.83;;;12.70;99.90;;;;;;6147048;23;20501;-88
2021/05/08 22:00:53;;;;;;;;;;;;;;;;;;;;;
2021/05/08 22:03:59;;;;;;;17.07;2.70;;;13.10;99.90;;;;;;6153838;23;20413;-88
2021/05/08 22:07:05;;;;;;;17.53;2.53;;;13.00;99.90;;;;;;6047220;23;20472;-86
2021/05/08 22:10:18;;;;;;;15.20;2.40;;;12.80;99.90;;;;;;6162877;23;20425;-86
2021/05/08 22:16:52;;;;;;;15.60;2.67;;;12.50;99.90;;;;;;6120029;23;20457;-89
2021/05/08 22:19:31;;;;;;;13.93;2.67;;;12.50;99.90;;;;;;6046696;23;20442;-87
2021/05/08 22:22:14;;;;;;;16.90;2.97;;;12.40;99.90;;;;;;6133243;23;20426;-86
2021/05/08 22:24:45;;;;;;;14.60;2.60;;;12.30;99.90;;;;;;6166159;23;20758;-91
2021/05/08 22:27:30;;;;;;;14.40;2.47;;;12.20;99.90;;;;;;6166727;23;20406;-91
2021/05/08 22:29:58;;;;;;;13.77;2.70;;;12.00;99.90;;;;;;6166349;23;20413;-88
2021/05/08 22:32:31;;;;;;;13.97;2.87;;;11.90;99.90;;;;;;6165079;23;20441;-85
2021/05/08 22:38:28;;;;;;;;;;;;;;;;;;;;;